Manteo, North Carolina
Current Conditions -  °F | °C
As of 8:35 AM on Friday 19 Dec 2014 (Local Time) from KMQI Reporting Station
Clear Clear  
Wind Chill: 37°   Ceiling: Unl
Heat Index: 42°   Visibility: 10mi
Dew Point: 35°   Wind: 8mph
Humidity: 75%   Direction: 360°N
Pressure: 30.14"   Gusts: NA
Location:  35.91°N, 75.68°W
Report Text: KMQI 191335Z AUTO 36007KT 10SM CLR 06/01 A3014 RMK AO2 T00560014
Loading
Personal Weather Stations






























Interactive Weather Map New forecast layout! Learn more

10-Day Weather Forecast

Advertisements
Track Severe Weather on mobile